sensor_id;sensor_type;location;lat;lon;timestamp;temperature;humidity
73955;DHT22;62306;52.516;13.290;2023-07-29T00:01:42;18.40;99.90
73955;DHT22;62306;52.516;13.290;2023-07-29T00:04:09;18.40;99.90
73955;DHT22;62306;52.516;13.290;2023-07-29T00:06:37;18.40;99.90
73955;DHT22;62306;52.516;13.290;2023-07-29T00:09:04;18.40;99.90
73955;DHT22;62306;52.516;13.290;2023-07-29T00:11:31;18.40;99.90
73955;DHT22;62306;52.516;13.290;2023-07-29T00:13:59;18.30;99.90
73955;DHT22;62306;52.516;13.290;2023-07-29T00:16:26;18.30;99.90
73955;DHT22;62306;52.516;13.290;2023-07-29T00:18:53;18.30;99.90
73955;DHT22;62306;52.516;13.290;2023-07-29T00:21:19;18.30;99.90
73955;DHT22;62306;52.516;13.290;2023-07-29T00:23:48;18.30;99.90
73955;DHT22;62306;52.516;13.290;2023-07-29T00:26:15;18.30;99.90
73955;DHT22;62306;52.516;13.290;2023-07-29T00:28:41;18.20;99.90
73955;DHT22;62306;52.516;13.290;2023-07-29T00:31:08;18.30;99.90
73955;DHT22;62306;52.516;13.290;2023-07-29T00:33:36;18.30;99.90
73955;DHT22;62306;52.516;13.290;2023-07-29T00:36:03;18.20;99.90
73955;DHT22;62306;52.516;13.290;2023-07-29T00:38:30;18.30;99.90
73955;DHT22;62306;52.516;13.290;2023-07-29T00:40:59;18.20;99.90
73955;DHT22;62306;52.516;13.290;2023-07-29T00:43:26;18.20;99.90
73955;DHT22;62306;52.516;13.290;2023-07-29T00:45:53;18.10;99.90
73955;DHT22;62306;52.516;13.290;2023-07-29T00:48:22;18.20;99.90
73955;DHT22;62306;52.516;13.290;2023-07-29T00:50:49;18.10;99.90
73955;DHT22;62306;52.516;13.290;2023-07-29T00:53:16;18.10;99.90
73955;DHT22;62306;52.516;13.290;2023-07-29T00:55:43;18.10;99.90
73955;DHT22;62306;52.516;13.290;2023-07-29T00:58:12;18.10;99.90
73955;DHT22;62306;52.516;13.290;2023-07-29T01:00:39;18.10;99.90
73955;DHT22;62306;52.516;13.290;2023-07-29T01:03:06;18.10;99.90
73955;DHT22;62306;52.516;13.290;2023-07-29T01:05:41;18.10;99.90
73955;DHT22;62306;52.516;13.290;2023-07-29T01:08:15;18.10;99.90
73955;DHT22;62306;52.516;13.290;2023-07-29T01:10:53;18.10;99.90
73955;DHT22;62306;52.516;13.290;2023-07-29T01:13:26;18.00;99.90
73955;DHT22;62306;52.516;13.290;2023-07-29T01:16:00;18.00;99.90
73955;DHT22;62306;52.516;13.290;2023-07-29T01:18:30;18.00;99.90
73955;DHT22;62306;52.516;13.290;2023-07-29T01:20:59;18.00;99.90
73955;DHT22;62306;52.516;13.290;2023-07-29T01:23:29;18.00;99.90
73955;DHT22;62306;52.516;13.290;2023-07-29T01:25:56;18.00;99.90
73955;DHT22;62306;52.516;13.290;2023-07-29T01:28:23;18.00;99.90
73955;DHT22;62306;52.516;13.290;2023-07-29T01:30:54;18.10;99.90
73955;DHT22;62306;52.516;13.290;2023-07-29T01:33:24;18.10;99.90
73955;DHT22;62306;52.516;13.290;2023-07-29T01:35:57;18.10;99.90
73955;DHT22;62306;52.516;13.290;2023-07-29T01:38:30;18.00;99.90
73955;DHT22;62306;52.516;13.290;2023-07-29T01:41:01;17.90;99.90
73955;DHT22;62306;52.516;13.290;2023-07-29T01:43:28;17.90;99.90
73955;DHT22;62306;52.516;13.290;2023-07-29T01:45:55;17.90;99.90
73955;DHT22;62306;52.516;13.290;2023-07-29T01:48:22;17.80;99.90
73955;DHT22;62306;52.516;13.290;2023-07-29T01:50:49;17.80;99.90
73955;DHT22;62306;52.516;13.290;2023-07-29T01:53:16;17.80;99.90
73955;DHT22;62306;52.516;13.290;2023-07-29T01:55:44;17.80;99.90
73955;DHT22;62306;52.516;13.290;2023-07-29T01:58:11;17.90;99.90
73955;DHT22;62306;52.516;13.290;2023-07-29T02:00:38;17.80;99.90
73955;DHT22;62306;52.516;13.290;2023-07-29T02:03:05;17.80;99.90
73955;DHT22;62306;52.516;13.290;2023-07-29T02:05:32;17.80;99.90
73955;DHT22;62306;52.516;13.290;2023-07-29T02:07:59;17.80;99.90
73955;DHT22;62306;52.516;13.290;2023-07-29T02:10:26;17.70;99.90
73955;DHT22;62306;52.516;13.290;2023-07-29T02:12:54;17.70;99.90
73955;DHT22;62306;52.516;13.290;2023-07-29T02:15:21;17.70;99.90
73955;DHT22;62306;52.516;13.290;2023-07-29T02:17:50;17.70;99.90
73955;DHT22;62306;52.516;13.290;2023-07-29T02:20:17;17.70;99.90
73955;DHT22;62306;52.516;13.290;2023-07-29T02:22:43;17.70;99.90
73955;DHT22;62306;52.516;13.290;2023-07-29T02:25:10;17.70;99.90
73955;DHT22;62306;52.516;13.290;2023-07-29T02:27:37;17.70;99.90
73955;DHT22;62306;52.516;13.290;2023-07-29T02:30:06;17.70;99.90
73955;DHT22;62306;52.516;13.290;2023-07-29T02:32:35;17.70;99.90
73955;DHT22;62306;52.516;13.290;2023-07-29T02:35:02;17.70;99.90
73955;DHT22;62306;52.516;13.290;2023-07-29T02:37:28;17.60;99.90
73955;DHT22;62306;52.516;13.290;2023-07-29T02:39:55;17.70;99.90
73955;DHT22;62306;52.516;13.290;2023-07-29T02:42:22;17.70;99.90
73955;DHT22;62306;52.516;13.290;2023-07-29T02:44:49;17.70;99.90
73955;DHT22;62306;52.516;13.290;2023-07-29T02:47:17;17.70;99.90
73955;DHT22;62306;52.516;13.290;2023-07-29T02:49:44;17.70;99.90
73955;DHT22;62306;52.516;13.290;2023-07-29T02:52:11;17.80;99.90
73955;DHT22;62306;52.516;13.290;2023-07-29T02:54:38;17.70;99.90
73955;DHT22;62306;52.516;13.290;2023-07-29T02:57:05;17.70;99.90
73955;DHT22;62306;52.516;13.290;2023-07-29T02:59:31;17.60;99.90
73955;DHT22;62306;52.516;13.290;2023-07-29T03:01:58;17.60;99.90
73955;DHT22;62306;52.516;13.290;2023-07-29T03:04:26;17.60;99.90
73955;DHT22;62306;52.516;13.290;2023-07-29T03:06:53;17.60;99.90
73955;DHT22;62306;52.516;13.290;2023-07-29T03:09:20;17.60;99.90
73955;DHT22;62306;52.516;13.290;2023-07-29T03:11:47;17.60;99.90
73955;DHT22;62306;52.516;13.290;2023-07-29T03:14:14;17.60;99.90
73955;DHT22;62306;52.516;13.290;2023-07-29T03:16:40;17.60;99.90
73955;DHT22;62306;52.516;13.290;2023-07-29T03:19:07;17.60;99.90
73955;DHT22;62306;52.516;13.290;2023-07-29T03:21:35;17.60;99.90
73955;DHT22;62306;52.516;13.290;2023-07-29T03:24:03;17.60;99.90
73955;DHT22;62306;52.516;13.290;2023-07-29T03:26:29;17.60;99.90
73955;DHT22;62306;52.516;13.290;2023-07-29T03:28:56;17.60;99.90
73955;DHT22;62306;52.516;13.290;2023-07-29T03:31:23;17.60;99.90
73955;DHT22;62306;52.516;13.290;2023-07-29T03:33:50;17.70;99.90
73955;DHT22;62306;52.516;13.290;2023-07-29T03:36:17;17.70;99.90
73955;DHT22;62306;52.516;13.290;2023-07-29T03:38:46;17.70;99.90
73955;DHT22;62306;52.516;13.290;2023-07-29T03:41:13;17.60;99.90
73955;DHT22;62306;52.516;13.290;2023-07-29T03:43:39;17.60;99.90
73955;DHT22;62306;52.516;13.290;2023-07-29T03:46:06;17.60;99.90
73955;DHT22;62306;52.516;13.290;2023-07-29T03:48:33;17.60;99.90
73955;DHT22;62306;52.516;13.290;2023-07-29T03:51:00;17.70;99.90
73955;DHT22;62306;52.516;13.290;2023-07-29T03:53:26;17.70;99.90
73955;DHT22;62306;52.516;13.290;2023-07-29T03:55:55;17.70;99.90
73955;DHT22;62306;52.516;13.290;2023-07-29T03:58:21;17.70;99.90
73955;DHT22;62306;52.516;13.290;2023-07-29T04:00:48;17.70;99.90
73955;DHT22;62306;52.516;13.290;2023-07-29T04:03:15;17.80;99.90
73955;DHT22;62306;52.516;13.290;2023-07-29T04:05:42;17.80;99.90
73955;DHT22;62306;52.516;13.290;2023-07-29T04:08:09;17.80;99.90
73955;DHT22;62306;52.516;13.290;2023-07-29T04:10:35;17.80;99.90
73955;DHT22;62306;52.516;13.290;2023-07-29T04:13:04;17.90;99.90
73955;DHT22;62306;52.516;13.290;2023-07-29T04:15:31;18.00;99.90
73955;DHT22;62306;52.516;13.290;2023-07-29T04:17:58;18.10;99.90
73955;DHT22;62306;52.516;13.290;2023-07-29T04:20:25;18.10;99.90
73955;DHT22;62306;52.516;13.290;2023-07-29T04:22:52;18.20;99.90
73955;DHT22;62306;52.516;13.290;2023-07-29T04:25:19;18.20;99.90
73955;DHT22;62306;52.516;13.290;2023-07-29T04:27:45;18.30;99.90
73955;DHT22;62306;52.516;13.290;2023-07-29T04:30:14;18.40;99.90
73955;DHT22;62306;52.516;13.290;2023-07-29T04:32:40;18.60;99.90
73955;DHT22;62306;52.516;13.290;2023-07-29T04:35:10;18.80;99.90
73955;DHT22;62306;52.516;13.290;2023-07-29T04:37:37;18.90;99.90
73955;DHT22;62306;52.516;13.290;2023-07-29T04:40:04;19.00;99.90
73955;DHT22;62306;52.516;13.290;2023-07-29T04:42:31;19.10;99.90
73955;DHT22;62306;52.516;13.290;2023-07-29T04:44:58;19.00;99.90
73955;DHT22;62306;52.516;13.290;2023-07-29T04:47:26;19.10;99.90
73955;DHT22;62306;52.516;13.290;2023-07-29T04:49:53;19.20;99.90
73955;DHT22;62306;52.516;13.290;2023-07-29T04:52:20;19.30;99.90
73955;DHT22;62306;52.516;13.290;2023-07-29T04:54:47;19.40;99.90
73955;DHT22;62306;52.516;13.290;2023-07-29T04:57:14;19.50;99.90
73955;DHT22;62306;52.516;13.290;2023-07-29T04:59:41;19.70;99.90
73955;DHT22;62306;52.516;13.290;2023-07-29T05:02:07;19.70;99.90
73955;DHT22;62306;52.516;13.290;2023-07-29T05:04:36;19.80;99.90
73955;DHT22;62306;52.516;13.290;2023-07-29T05:07:02;19.90;99.90
73955;DHT22;62306;52.516;13.290;2023-07-29T05:09:29;20.00;99.90
73955;DHT22;62306;52.516;13.290;2023-07-29T05:11:56;20.00;99.90
73955;DHT22;62306;52.516;13.290;2023-07-29T05:14:23;20.10;99.90
73955;DHT22;62306;52.516;13.290;2023-07-29T05:16:50;20.10;99.90
73955;DHT22;62306;52.516;13.290;2023-07-29T05:19:16;20.00;99.90
73955;DHT22;62306;52.516;13.290;2023-07-29T05:21:45;20.00;99.90
73955;DHT22;62306;52.516;13.290;2023-07-29T05:24:11;20.80;99.90
73955;DHT22;62306;52.516;13.290;2023-07-29T05:26:38;22.40;99.90
73955;DHT22;62306;52.516;13.290;2023-07-29T05:29:05;24.00;99.90
73955;DHT22;62306;52.516;13.290;2023-07-29T05:31:32;25.60;99.90
73955;DHT22;62306;52.516;13.290;2023-07-29T05:33:59;25.80;99.90
73955;DHT22;62306;52.516;13.290;2023-07-29T05:36:26;24.90;99.90
73955;DHT22;62306;52.516;13.290;2023-07-29T05:38:54;23.80;99.90
73955;DHT22;62306;52.516;13.290;2023-07-29T05:41:20;23.00;99.90
73955;DHT22;62306;52.516;13.290;2023-07-29T05:43:47;22.40;99.90
73955;DHT22;62306;52.516;13.290;2023-07-29T05:46:14;22.00;99.90
73955;DHT22;62306;52.516;13.290;2023-07-29T05:48:41;22.80;99.90
73955;DHT22;62306;52.516;13.290;2023-07-29T05:51:08;24.50;99.90
73955;DHT22;62306;52.516;13.290;2023-07-29T05:53:35;26.20;99.90
73955;DHT22;62306;52.516;13.290;2023-07-29T05:56:03;27.50;98.70
73955;DHT22;62306;52.516;13.290;2023-07-29T05:58:30;28.80;95.80
73955;DHT22;62306;52.516;13.290;2023-07-29T06:00:57;29.20;93.40
73955;DHT22;62306;52.516;13.290;2023-07-29T06:03:24;29.70;91.30
73955;DHT22;62306;52.516;13.290;2023-07-29T06:05:51;30.10;90.20
73955;DHT22;62306;52.516;13.290;2023-07-29T06:08:18;30.70;86.30
73955;DHT22;62306;52.516;13.290;2023-07-29T06:10:45;30.70;84.00
73955;DHT22;62306;52.516;13.290;2023-07-29T06:13:13;30.60;83.10
73955;DHT22;62306;52.516;13.290;2023-07-29T06:15:40;30.30;82.90
73955;DHT22;62306;52.516;13.290;2023-07-29T06:18:07;30.40;83.90
73955;DHT22;62306;52.516;13.290;2023-07-29T06:20:34;29.90;84.20
73955;DHT22;62306;52.516;13.290;2023-07-29T06:23:00;30.00;85.30
73955;DHT22;62306;52.516;13.290;2023-07-29T06:25:27;30.30;84.80
73955;DHT22;62306;52.516;13.290;2023-07-29T06:27:54;30.60;82.70
73955;DHT22;62306;52.516;13.290;2023-07-29T06:30:22;31.00;82.00
73955;DHT22;62306;52.516;13.290;2023-07-29T06:32:49;30.80;80.20
73955;DHT22;62306;52.516;13.290;2023-07-29T06:35:16;29.90;83.20
73955;DHT22;62306;52.516;13.290;2023-07-29T06:37:43;30.20;84.50
73955;DHT22;62306;52.516;13.290;2023-07-29T06:40:10;29.90;85.20
73955;DHT22;62306;52.516;13.290;2023-07-29T06:42:37;29.50;87.30
73955;DHT22;62306;52.516;13.290;2023-07-29T06:45:05;29.00;89.50
73955;DHT22;62306;52.516;13.290;2023-07-29T06:47:34;28.30;91.10
73955;DHT22;62306;52.516;13.290;2023-07-29T06:50:00;27.90;92.40
73955;DHT22;62306;52.516;13.290;2023-07-29T06:52:27;27.20;94.70
73955;DHT22;62306;52.516;13.290;2023-07-29T06:54:54;27.00;96.60
73955;DHT22;62306;52.516;13.290;2023-07-29T06:57:21;26.90;96.70
73955;DHT22;62306;52.516;13.290;2023-07-29T06:59:48;26.90;97.00
73955;DHT22;62306;52.516;13.290;2023-07-29T07:02:15;26.80;97.40
73955;DHT22;62306;52.516;13.290;2023-07-29T07:04:43;26.70;97.60
73955;DHT22;62306;52.516;13.290;2023-07-29T07:07:10;26.40;98.20
73955;DHT22;62306;52.516;13.290;2023-07-29T07:09:37;26.10;99.60
73955;DHT22;62306;52.516;13.290;2023-07-29T07:12:05;25.70;99.90
73955;DHT22;62306;52.516;13.290;2023-07-29T07:14:32;25.40;99.90
73955;DHT22;62306;52.516;13.290;2023-07-29T07:16:58;25.40;99.90
73955;DHT22;62306;52.516;13.290;2023-07-29T07:19:25;25.30;99.90
73955;DHT22;62306;52.516;13.290;2023-07-29T07:21:54;25.40;99.90
73955;DHT22;62306;52.516;13.290;2023-07-29T07:24:20;25.60;99.90
73955;DHT22;62306;52.516;13.290;2023-07-29T07:26:47;25.80;99.90
73955;DHT22;62306;52.516;13.290;2023-07-29T07:29:14;25.80;99.90
73955;DHT22;62306;52.516;13.290;2023-07-29T07:31:50;25.70;99.90
73955;DHT22;62306;52.516;13.290;2023-07-29T07:34:18;25.80;99.90
73955;DHT22;62306;52.516;13.290;2023-07-29T07:36:45;25.80;99.90
73955;DHT22;62306;52.516;13.290;2023-07-29T07:39:14;25.70;99.90
73955;DHT22;62306;52.516;13.290;2023-07-29T07:41:41;25.80;99.90
73955;DHT22;62306;52.516;13.290;2023-07-29T07:44:08;26.10;99.90
73955;DHT22;62306;52.516;13.290;2023-07-29T07:46:36;26.40;99.90
73955;DHT22;62306;52.516;13.290;2023-07-29T07:49:03;26.80;99.60
73955;DHT22;62306;52.516;13.290;2023-07-29T07:51:31;27.00;99.00
73955;DHT22;62306;52.516;13.290;2023-07-29T07:53:58;27.00;98.60
73955;DHT22;62306;52.516;13.290;2023-07-29T07:56:26;27.10;98.50
73955;DHT22;62306;52.516;13.290;2023-07-29T07:58:53;26.90;98.30
73955;DHT22;62306;52.516;13.290;2023-07-29T08:01:20;26.80;98.90
73955;DHT22;62306;52.516;13.290;2023-07-29T08:03:46;27.00;98.70
73955;DHT22;62306;52.516;13.290;2023-07-29T08:06:13;27.00;98.80
73955;DHT22;62306;52.516;13.290;2023-07-29T08:08:40;26.80;98.70
73955;DHT22;62306;52.516;13.290;2023-07-29T08:11:08;26.80;98.40
73955;DHT22;62306;52.516;13.290;2023-07-29T08:13:36;26.60;98.70
73955;DHT22;62306;52.516;13.290;2023-07-29T08:16:03;26.20;99.40
73955;DHT22;62306;52.516;13.290;2023-07-29T08:18:30;26.10;99.90
73955;DHT22;62306;52.516;13.290;2023-07-29T08:20:58;25.70;99.90
73955;DHT22;62306;52.516;13.290;2023-07-29T08:23:29;25.80;99.90
73955;DHT22;62306;52.516;13.290;2023-07-29T08:25:57;26.10;99.90
73955;DHT22;62306;52.516;13.290;2023-07-29T08:28:27;26.20;99.90
73955;DHT22;62306;52.516;13.290;2023-07-29T08:30:56;26.50;99.90
73955;DHT22;62306;52.516;13.290;2023-07-29T08:33:23;26.50;99.80
73955;DHT22;62306;52.516;13.290;2023-07-29T08:35:50;26.80;99.10
73955;DHT22;62306;52.516;13.290;2023-07-29T08:38:17;26.50;99.30
73955;DHT22;62306;52.516;13.290;2023-07-29T08:40:46;26.40;99.40
73955;DHT22;62306;52.516;13.290;2023-07-29T08:43:18;26.50;99.50
73955;DHT22;62306;52.516;13.290;2023-07-29T08:45:46;26.70;98.80
73955;DHT22;62306;52.516;13.290;2023-07-29T08:48:19;26.60;99.10
73955;DHT22;62306;52.516;13.290;2023-07-29T08:50:49;26.10;99.90
73955;DHT22;62306;52.516;13.290;2023-07-29T08:53:17;25.80;99.90
73955;DHT22;62306;52.516;13.290;2023-07-29T08:55:45;25.70;99.90
73955;DHT22;62306;52.516;13.290;2023-07-29T08:58:12;25.90;99.90
73955;DHT22;62306;52.516;13.290;2023-07-29T09:00:39;26.10;99.90
73955;DHT22;62306;52.516;13.290;2023-07-29T09:03:06;26.00;99.90
73955;DHT22;62306;52.516;13.290;2023-07-29T09:05:35;26.30;99.60
73955;DHT22;62306;52.516;13.290;2023-07-29T09:08:03;26.30;99.50
73955;DHT22;62306;52.516;13.290;2023-07-29T09:10:35;26.30;99.50
73955;DHT22;62306;52.516;13.290;2023-07-29T09:13:02;26.30;99.80
73955;DHT22;62306;52.516;13.290;2023-07-29T09:15:30;26.20;99.90
73955;DHT22;62306;52.516;13.290;2023-07-29T09:17:57;26.20;99.90
73955;DHT22;62306;52.516;13.290;2023-07-29T09:20:25;26.30;99.80
73955;DHT22;62306;52.516;13.290;2023-07-29T09:22:57;26.30;99.90
73955;DHT22;62306;52.516;13.290;2023-07-29T09:25:25;26.20;99.90
73955;DHT22;62306;52.516;13.290;2023-07-29T09:27:53;26.40;99.40
73955;DHT22;62306;52.516;13.290;2023-07-29T09:30:25;26.40;99.70
73955;DHT22;62306;52.516;13.290;2023-07-29T09:32:55;26.40;99.90
73955;DHT22;62306;52.516;13.290;2023-07-29T09:35:22;26.60;99.90
73955;DHT22;62306;52.516;13.290;2023-07-29T09:37:50;26.80;99.60
73955;DHT22;62306;52.516;13.290;2023-07-29T09:40:18;27.00;99.20
73955;DHT22;62306;52.516;13.290;2023-07-29T09:42:50;27.30;98.40
73955;DHT22;62306;52.516;13.290;2023-07-29T09:45:21;27.20;98.60
73955;DHT22;62306;52.516;13.290;2023-07-29T09:47:48;27.00;99.00
73955;DHT22;62306;52.516;13.290;2023-07-29T09:50:15;26.80;99.20
73955;DHT22;62306;52.516;13.290;2023-07-29T09:52:43;26.90;98.90
73955;DHT22;62306;52.516;13.290;2023-07-29T09:55:11;26.80;98.90
73955;DHT22;62306;52.516;13.290;2023-07-29T09:57:40;26.80;98.90
73955;DHT22;62306;52.516;13.290;2023-07-29T10:00:10;26.90;99.20
73955;DHT22;62306;52.516;13.290;2023-07-29T10:02:38;27.20;98.40
73955;DHT22;62306;52.516;13.290;2023-07-29T10:05:07;27.50;97.90
73955;DHT22;62306;52.516;13.290;2023-07-29T10:07:34;27.70;97.60
73955;DHT22;62306;52.516;13.290;2023-07-29T10:10:04;27.40;98.10
73955;DHT22;62306;52.516;13.290;2023-07-29T10:12:32;27.10;98.10
73955;DHT22;62306;52.516;13.290;2023-07-29T10:15:02;27.10;98.20
73955;DHT22;62306;52.516;13.290;2023-07-29T10:17:29;27.30;97.80
73955;DHT22;62306;52.516;13.290;2023-07-29T10:19:57;27.40;97.50
73955;DHT22;62306;52.516;13.290;2023-07-29T10:22:25;27.10;97.80
73955;DHT22;62306;52.516;13.290;2023-07-29T10:24:55;26.90;97.90
73955;DHT22;62306;52.516;13.290;2023-07-29T10:27:25;26.60;98.50
73955;DHT22;62306;52.516;13.290;2023-07-29T10:29:55;26.20;99.20
73955;DHT22;62306;52.516;13.290;2023-07-29T10:32:25;26.10;99.40
73955;DHT22;62306;52.516;13.290;2023-07-29T10:34:53;26.10;99.40
73955;DHT22;62306;52.516;13.290;2023-07-29T10:37:21;26.10;99.70
73955;DHT22;62306;52.516;13.290;2023-07-29T10:39:53;26.30;99.80
73955;DHT22;62306;52.516;13.290;2023-07-29T10:42:20;26.50;98.70
73955;DHT22;62306;52.516;13.290;2023-07-29T10:44:51;26.50;98.20
73955;DHT22;62306;52.516;13.290;2023-07-29T10:47:20;26.30;98.60
73955;DHT22;62306;52.516;13.290;2023-07-29T10:49:50;26.40;98.80
73955;DHT22;62306;52.516;13.290;2023-07-29T10:52:29;26.30;98.70
73955;DHT22;62306;52.516;13.290;2023-07-29T10:54:56;26.30;98.80
73955;DHT22;62306;52.516;13.290;2023-07-29T10:57:31;26.10;99.40
73955;DHT22;62306;52.516;13.290;2023-07-29T10:59:59;26.00;99.40
73955;DHT22;62306;52.516;13.290;2023-07-29T11:02:32;25.70;99.80
73955;DHT22;62306;52.516;13.290;2023-07-29T11:05:05;25.50;99.90
73955;DHT22;62306;52.516;13.290;2023-07-29T11:07:34;25.10;99.90
73955;DHT22;62306;52.516;13.290;2023-07-29T11:10:09;24.80;99.90
73955;DHT22;62306;52.516;13.290;2023-07-29T11:12:41;24.50;99.90
73955;DHT22;62306;52.516;13.290;2023-07-29T11:15:13;23.40;99.90
73955;DHT22;62306;52.516;13.290;2023-07-29T11:17:44;22.10;99.90
73955;DHT22;62306;52.516;13.290;2023-07-29T11:20:12;21.30;99.90
73955;DHT22;62306;52.516;13.290;2023-07-29T11:22:40;20.80;99.90
73955;DHT22;62306;52.516;13.290;2023-07-29T11:25:11;20.50;99.90
73955;DHT22;62306;52.516;13.290;2023-07-29T11:27:47;20.60;99.90
73955;DHT22;62306;52.516;13.290;2023-07-29T11:30:15;20.60;99.90
73955;DHT22;62306;52.516;13.290;2023-07-29T11:32:43;20.80;99.90
73955;DHT22;62306;52.516;13.290;2023-07-29T11:35:13;20.80;99.90
73955;DHT22;62306;52.516;13.290;2023-07-29T11:37:44;20.80;99.90
73955;DHT22;62306;52.516;13.290;2023-07-29T11:40:14;21.00;99.90
73955;DHT22;62306;52.516;13.290;2023-07-29T11:42:41;21.20;99.90
73955;DHT22;62306;52.516;13.290;2023-07-29T11:45:09;21.30;99.90
73955;DHT22;62306;52.516;13.290;2023-07-29T11:47:36;21.30;99.90
73955;DHT22;62306;52.516;13.290;2023-07-29T11:50:04;21.30;99.90
73955;DHT22;62306;52.516;13.290;2023-07-29T11:52:33;21.30;99.90
73955;DHT22;62306;52.516;13.290;2023-07-29T11:55:00;21.20;99.90
73955;DHT22;62306;52.516;13.290;2023-07-29T11:57:28;21.30;99.90
73955;DHT22;62306;52.516;13.290;2023-07-29T11:59:55;21.30;99.90
73955;DHT22;62306;52.516;13.290;2023-07-29T12:02:23;21.30;99.90
73955;DHT22;62306;52.516;13.290;2023-07-29T12:04:51;21.30;99.90
73955;DHT22;62306;52.516;13.290;2023-07-29T12:07:19;21.40;99.90
73955;DHT22;62306;52.516;13.290;2023-07-29T12:09:47;21.50;99.90
73955;DHT22;62306;52.516;13.290;2023-07-29T12:12:15;21.60;99.90
73955;DHT22;62306;52.516;13.290;2023-07-29T12:14:44;21.60;99.90
73955;DHT22;62306;52.516;13.290;2023-07-29T12:17:12;21.70;99.90
73955;DHT22;62306;52.516;13.290;2023-07-29T12:19:39;21.80;99.90
73955;DHT22;62306;52.516;13.290;2023-07-29T12:22:07;21.90;99.90
73955;DHT22;62306;52.516;13.290;2023-07-29T12:24:36;22.10;99.90
73955;DHT22;62306;52.516;13.290;2023-07-29T12:27:06;22.20;99.90
73955;DHT22;62306;52.516;13.290;2023-07-29T12:29:40;22.20;99.90
73955;DHT22;62306;52.516;13.290;2023-07-29T12:32:07;22.30;99.90
73955;DHT22;62306;52.516;13.290;2023-07-29T12:34:35;22.30;99.90
73955;DHT22;62306;52.516;13.290;2023-07-29T12:37:04;22.50;99.90
73955;DHT22;62306;52.516;13.290;2023-07-29T12:39:33;22.60;99.90
73955;DHT22;62306;52.516;13.290;2023-07-29T12:42:00;22.70;99.90
73955;DHT22;62306;52.516;13.290;2023-07-29T12:44:30;23.00;99.90
73955;DHT22;62306;52.516;13.290;2023-07-29T12:46:57;23.30;99.90
73955;DHT22;62306;52.516;13.290;2023-07-29T12:49:24;23.70;99.90
73955;DHT22;62306;52.516;13.290;2023-07-29T12:51:51;23.90;99.90
73955;DHT22;62306;52.516;13.290;2023-07-29T12:54:18;24.10;99.90
73955;DHT22;62306;52.516;13.290;2023-07-29T12:56:45;24.40;99.90
73955;DHT22;62306;52.516;13.290;2023-07-29T12:59:12;24.50;99.90
73955;DHT22;62306;52.516;13.290;2023-07-29T13:01:40;24.50;99.90
73955;DHT22;62306;52.516;13.290;2023-07-29T13:04:07;24.40;99.90
73955;DHT22;62306;52.516;13.290;2023-07-29T13:06:34;24.40;99.90
73955;DHT22;62306;52.516;13.290;2023-07-29T13:09:00;24.50;99.90
73955;DHT22;62306;52.516;13.290;2023-07-29T13:11:28;24.30;99.90
73955;DHT22;62306;52.516;13.290;2023-07-29T13:13:57;24.10;99.90
73955;DHT22;62306;52.516;13.290;2023-07-29T13:16:26;24.00;99.90
73955;DHT22;62306;52.516;13.290;2023-07-29T13:18:54;24.10;99.90
73955;DHT22;62306;52.516;13.290;2023-07-29T13:21:21;24.10;99.90
73955;DHT22;62306;52.516;13.290;2023-07-29T13:23:48;24.20;99.90
73955;DHT22;62306;52.516;13.290;2023-07-29T13:26:14;24.40;99.90
73955;DHT22;62306;52.516;13.290;2023-07-29T13:28:41;24.50;99.90
73955;DHT22;62306;52.516;13.290;2023-07-29T13:31:08;24.60;99.90
73955;DHT22;62306;52.516;13.290;2023-07-29T13:33:35;24.80;99.90
73955;DHT22;62306;52.516;13.290;2023-07-29T13:36:03;24.80;99.90
73955;DHT22;62306;52.516;13.290;2023-07-29T13:38:30;25.00;99.90
73955;DHT22;62306;52.516;13.290;2023-07-29T13:40:57;25.30;99.90
73955;DHT22;62306;52.516;13.290;2023-07-29T13:43:24;25.30;99.90
73955;DHT22;62306;52.516;13.290;2023-07-29T13:45:51;25.40;99.90
73955;DHT22;62306;52.516;13.290;2023-07-29T13:48:18;25.40;99.90
73955;DHT22;62306;52.516;13.290;2023-07-29T13:50:45;25.30;99.90
73955;DHT22;62306;52.516;13.290;2023-07-29T13:53:13;25.20;99.90
73955;DHT22;62306;52.516;13.290;2023-07-29T13:55:40;25.10;99.90
73955;DHT22;62306;52.516;13.290;2023-07-29T13:58:07;25.20;99.90
73955;DHT22;62306;52.516;13.290;2023-07-29T14:00:34;25.20;99.90
73955;DHT22;62306;52.516;13.290;2023-07-29T14:03:01;25.30;99.90
73955;DHT22;62306;52.516;13.290;2023-07-29T14:05:27;25.30;99.90
73955;DHT22;62306;52.516;13.290;2023-07-29T14:07:54;25.50;99.90
73955;DHT22;62306;52.516;13.290;2023-07-29T14:10:23;25.50;99.90
73955;DHT22;62306;52.516;13.290;2023-07-29T14:12:50;25.50;99.90
73955;DHT22;62306;52.516;13.290;2023-07-29T14:15:17;25.40;99.90
73955;DHT22;62306;52.516;13.290;2023-07-29T14:17:44;25.30;99.90
73955;DHT22;62306;52.516;13.290;2023-07-29T14:20:11;25.40;99.90
73955;DHT22;62306;52.516;13.290;2023-07-29T14:22:38;25.40;99.90
73955;DHT22;62306;52.516;13.290;2023-07-29T14:25:07;25.30;99.90
73955;DHT22;62306;52.516;13.290;2023-07-29T14:27:35;25.30;99.90
73955;DHT22;62306;52.516;13.290;2023-07-29T14:30:02;25.10;99.90
73955;DHT22;62306;52.516;13.290;2023-07-29T14:32:29;25.20;99.90
73955;DHT22;62306;52.516;13.290;2023-07-29T14:34:56;25.30;99.90
73955;DHT22;62306;52.516;13.290;2023-07-29T14:37:23;25.40;99.90
73955;DHT22;62306;52.516;13.290;2023-07-29T14:39:50;25.30;99.90
73955;DHT22;62306;52.516;13.290;2023-07-29T14:42:16;25.20;99.90
73955;DHT22;62306;52.516;13.290;2023-07-29T14:44:44;25.20;99.90
73955;DHT22;62306;52.516;13.290;2023-07-29T14:47:11;25.30;99.90
73955;DHT22;62306;52.516;13.290;2023-07-29T14:49:38;25.20;99.90
73955;DHT22;62306;52.516;13.290;2023-07-29T14:52:06;25.10;99.90
73955;DHT22;62306;52.516;13.290;2023-07-29T14:54:33;25.00;99.90
73955;DHT22;62306;52.516;13.290;2023-07-29T14:57:00;24.80;99.90
73955;DHT22;62306;52.516;13.290;2023-07-29T14:59:27;24.80;99.90
73955;DHT22;62306;52.516;13.290;2023-07-29T15:01:55;24.70;99.90
73955;DHT22;62306;52.516;13.290;2023-07-29T15:04:22;24.70;99.90
73955;DHT22;62306;52.516;13.290;2023-07-29T15:06:49;24.60;99.90
73955;DHT22;62306;52.516;13.290;2023-07-29T15:09:16;24.40;99.90
73955;DHT22;62306;52.516;13.290;2023-07-29T15:11:43;24.20;99.90
73955;DHT22;62306;52.516;13.290;2023-07-29T15:14:09;24.00;99.90
73955;DHT22;62306;52.516;13.290;2023-07-29T15:16:36;24.00;99.90
73955;DHT22;62306;52.516;13.290;2023-07-29T15:19:06;24.00;99.90